createdAt,value
2023-02-14T00:00:02.208Z,103228.03
2023-02-14T00:02:30.099Z,103224.84
2023-02-14T00:04:57.736Z,103219.84
2023-02-14T00:07:25.345Z,103225.88
2023-02-14T00:09:52.942Z,103231.06
2023-02-14T00:12:20.856Z,103233.41
2023-02-14T00:15:08.446Z,103228.38
2023-02-14T00:17:36.508Z,103230.91
2023-02-14T00:20:05.021Z,103236.59
2023-02-14T00:22:32.668Z,103229.72
2023-02-14T00:25:00.466Z,103237.91
2023-02-14T00:27:28.059Z,103228.03
2023-02-14T00:30:03.084Z,103227.22
2023-02-14T00:32:30.737Z,103229.88
2023-02-14T00:34:58.370Z,103220.66
2023-02-14T00:37:26.017Z,103225.03
2023-02-14T00:39:53.745Z,103230.56
2023-02-14T00:42:22.172Z,103213.47
2023-02-14T01:15:10.048Z,103223.34
2023-02-14T01:41:30.240Z,103202.91
2023-02-14T01:44:00.510Z,103210.78
2023-02-14T01:46:29.918Z,103214.47
2023-02-14T01:49:01.172Z,103198.38
2023-02-14T01:51:29.624Z,103200.56
2023-02-14T01:53:58.026Z,103204.91
2023-02-14T01:56:31.442Z,103205.25
2023-02-14T01:59:01.463Z,103199.56
2023-02-14T02:01:30.137Z,103197.72
2023-02-14T02:04:01.164Z,103193.53
2023-02-14T02:06:31.607Z,103187.00
2023-02-14T02:09:06.344Z,103185.66
2023-02-14T02:11:35.440Z,103186.66
2023-02-14T02:14:03.372Z,103180.16
2023-02-14T02:16:47.193Z,103183.63
2023-02-14T02:19:52.464Z,103180.78
2023-02-14T02:31:39.327Z,103171.41
2023-02-14T02:34:43.222Z,103171.25
2023-02-14T02:37:24.708Z,103170.41
2023-02-14T02:40:06.957Z,103175.44
2023-02-14T03:03:23.420Z,103165.69
2023-02-14T03:05:51.235Z,103167.41
2023-02-14T03:08:18.949Z,103166.06
2023-02-14T03:10:46.675Z,103163.88
2023-02-14T03:13:31.979Z,103162.72
2023-02-14T03:16:52.365Z,103156.69
2023-02-14T03:39:13.973Z,103154.00
2023-02-14T03:41:45.367Z,103153.13
2023-02-14T03:44:15.055Z,103153.66
2023-02-14T03:46:46.963Z,103147.44
2023-02-14T03:49:19.292Z,103150.47
2023-02-14T03:51:49.800Z,103152.16
2023-02-14T03:54:19.841Z,103143.28
2023-02-14T03:56:49.814Z,103140.91
2023-02-14T03:59:19.749Z,103141.25
2023-02-14T04:01:50.567Z,103143.78
2023-02-14T04:04:21.577Z,103137.91
2023-02-14T04:06:49.748Z,103137.56
2023-02-14T04:09:18.784Z,103134.56
2023-02-14T04:11:46.469Z,103125.69
2023-02-14T04:14:14.229Z,103126.72
2023-02-14T04:16:55.652Z,103129.38
2023-02-14T04:19:25.932Z,103119.66
2023-02-14T04:21:54.113Z,103125.38
2023-02-14T04:24:23.107Z,103116.66
2023-02-14T04:27:09.839Z,103121.84
2023-02-14T04:29:38.788Z,103125.38
2023-02-14T04:32:08.356Z,103116.47
2023-02-14T04:34:36.217Z,103119.00
2023-02-14T04:37:03.759Z,103114.97
2023-02-14T04:39:33.059Z,103114.50
2023-02-14T04:42:00.582Z,103113.81
2023-02-14T04:44:28.340Z,103107.78
2023-02-14T04:46:56.222Z,103107.13
2023-02-14T04:49:23.962Z,103112.13
2023-02-14T04:54:36.877Z,103113.66
2023-02-14T04:57:04.529Z,103119.00
2023-02-14T04:59:32.380Z,103122.50
2023-02-14T05:02:00.242Z,103120.00
2023-02-14T05:04:31.786Z,103106.44
2023-02-14T05:06:59.617Z,103102.44
2023-02-14T05:09:27.335Z,103108.78
2023-02-14T05:11:56.387Z,103116.16
2023-02-14T05:14:24.189Z,103111.13
2023-02-14T05:16:51.945Z,103114.13
2023-02-14T05:19:19.560Z,103107.41
2023-02-14T05:21:47.375Z,103111.63
2023-02-14T05:24:14.939Z,103096.41
2023-02-14T05:26:42.500Z,103105.97
2023-02-14T05:29:11.454Z,103104.25
2023-02-14T05:31:39.267Z,103094.56
2023-02-14T05:34:07.067Z,103101.25
2023-02-14T05:36:34.688Z,103103.09
2023-02-14T05:39:03.589Z,103105.44
2023-02-14T05:41:31.225Z,103107.47
2023-02-14T05:43:58.837Z,103100.75
2023-02-14T05:46:27.824Z,103101.59
2023-02-14T05:48:55.445Z,103100.41
2023-02-14T05:51:22.964Z,103097.75
2023-02-14T05:53:50.611Z,103087.84
2023-02-14T05:56:18.268Z,103090.88
2023-02-14T05:58:45.818Z,103091.22
2023-02-14T06:01:13.396Z,103097.25
2023-02-14T06:03:42.283Z,103095.06
2023-02-14T06:06:16.011Z,103092.69
2023-02-14T06:08:44.029Z,103100.41
2023-02-14T06:11:11.523Z,103100.09
2023-02-14T06:13:43.020Z,103092.88
2023-02-14T06:16:15.783Z,103097.75
2023-02-14T06:18:48.021Z,103094.72
2023-02-14T06:23:54.833Z,103105.44
2023-02-14T06:26:36.572Z,103111.97
2023-02-14T06:34:57.627Z,103121.31
2023-02-14T06:43:29.361Z,103117.94
2023-02-14T06:46:00.464Z,103116.44
2023-02-14T06:48:31.274Z,103109.41
2023-02-14T06:51:03.523Z,103115.13
2023-02-14T06:53:34.119Z,103106.75
2023-02-14T06:56:01.946Z,103111.59
2023-02-14T06:58:34.853Z,103111.91
2023-02-14T07:01:07.120Z,103106.41
2023-02-14T07:03:38.472Z,103111.91
2023-02-14T07:06:09.762Z,103111.75
2023-02-14T07:08:39.011Z,103102.22
2023-02-14T07:11:08.307Z,103096.53
2023-02-14T07:13:37.674Z,103103.72
2023-02-14T07:16:07.450Z,103093.34
2023-02-14T07:18:35.671Z,103100.03
2023-02-14T07:21:03.982Z,103098.38
2023-02-14T07:23:33.139Z,103107.72
2023-02-14T07:26:01.043Z,103105.72
2023-02-14T07:28:30.328Z,103107.41
2023-02-14T07:31:00.789Z,103113.75
2023-02-14T07:33:28.844Z,103108.75
2023-02-14T07:35:56.390Z,103105.03
2023-02-14T07:38:24.477Z,103097.88
2023-02-14T07:40:55.576Z,103091.34
2023-02-14T07:43:23.137Z,103099.88
2023-02-14T07:45:50.719Z,103093.50
2023-02-14T07:48:18.478Z,103094.03
2023-02-14T07:50:46.003Z,103101.53
2023-02-14T07:53:13.664Z,103090.69
2023-02-14T07:55:42.413Z,103098.53
2023-02-14T07:58:12.581Z,103096.31
2023-02-14T08:00:43.310Z,103102.72
2023-02-14T08:03:11.362Z,103095.34
2023-02-14T08:05:39.117Z,103095.84
2023-02-14T08:08:06.819Z,103102.38
2023-02-14T08:10:34.551Z,103106.25
2023-02-14T08:13:03.370Z,103099.72
2023-02-14T08:15:52.606Z,103102.59
2023-02-14T08:18:20.717Z,103098.56
2023-02-14T08:20:49.886Z,103101.41
2023-02-14T08:23:18.351Z,103103.25
2023-02-14T08:25:46.181Z,103105.09
2023-02-14T08:28:18.639Z,103097.25
2023-02-14T08:30:48.457Z,103091.72
2023-02-14T08:33:16.023Z,103091.41
2023-02-14T08:35:43.596Z,103093.06
2023-02-14T08:38:11.927Z,103095.06
2023-02-14T08:40:39.614Z,103092.72
2023-02-14T08:43:07.901Z,103091.22
2023-02-14T08:45:35.525Z,103094.56
2023-02-14T08:48:06.449Z,103095.41
2023-02-14T08:50:34.546Z,103090.72
2023-02-14T08:53:02.291Z,103093.03
2023-02-14T08:55:29.875Z,103091.53
2023-02-14T08:57:58.278Z,103080.34
2023-02-14T09:00:26.165Z,103095.06
2023-02-14T09:02:54.461Z,103087.06
2023-02-14T09:05:24.938Z,103083.19
2023-02-14T09:07:52.599Z,103085.34
2023-02-14T09:10:20.254Z,103093.91
2023-02-14T09:12:47.892Z,103089.88
2023-02-14T09:15:15.496Z,103085.34
2023-02-14T09:17:43.244Z,103083.66
2023-02-14T09:20:12.554Z,103084.00
2023-02-14T09:22:42.391Z,103080.66
2023-02-14T09:25:10.477Z,103085.50
2023-02-14T09:27:38.264Z,103080.63
2023-02-14T09:30:06.918Z,103083.63
2023-02-14T09:32:34.945Z,103078.13
2023-02-14T09:35:05.373Z,103085.81
2023-02-14T09:37:32.992Z,103091.00
2023-02-14T09:40:02.556Z,103086.00
2023-02-14T09:42:50.069Z,103089.31
2023-02-14T09:45:20.504Z,103087.66
2023-02-14T09:47:51.149Z,103077.09
2023-02-14T09:50:24.161Z,103076.41
2023-02-14T09:52:55.339Z,103074.25
2023-02-14T09:55:24.567Z,103067.34
2023-02-14T09:58:07.344Z,103072.22
2023-02-14T10:00:39.448Z,103068.84
2023-02-14T10:03:31.276Z,103074.19
2023-02-14T10:06:03.131Z,103075.53
2023-02-14T10:08:42.211Z,103067.34
2023-02-14T10:11:13.147Z,103067.16
2023-02-14T10:13:43.308Z,103065.34
2023-02-14T10:16:16.389Z,103069.16
2023-02-14T10:18:47.227Z,103059.75
2023-02-14T10:21:23.247Z,103065.59
2023-02-14T10:23:54.140Z,103066.59
2023-02-14T10:26:29.331Z,103067.41
2023-02-14T10:28:57.072Z,103062.91
2023-02-14T10:31:26.392Z,103064.56
2023-02-14T10:33:59.053Z,103060.84
2023-02-14T10:36:42.799Z,103050.31
2023-02-14T10:39:23.055Z,103040.97
2023-02-14T10:41:54.411Z,103045.72
2023-02-14T10:44:31.649Z,103038.69
2023-02-14T10:47:03.912Z,103035.13
2023-02-14T10:49:40.686Z,103045.72
2023-02-14T10:52:18.657Z,103040.81
2023-02-14T10:54:52.067Z,103037.25
2023-02-14T10:57:25.247Z,103043.66
2023-02-14T10:59:56.041Z,103045.78
2023-02-14T11:02:25.629Z,103039.91
2023-02-14T11:04:53.530Z,103043.75
2023-02-14T11:07:22.935Z,103038.28
2023-02-14T11:09:50.815Z,103034.72
2023-02-14T11:12:39.219Z,103028.88
2023-02-14T11:15:12.801Z,103039.88
2023-02-14T11:17:40.344Z,103042.72
2023-02-14T11:20:25.368Z,103032.63
2023-02-14T11:22:53.420Z,103031.91
2023-02-14T11:25:23.362Z,103022.13
2023-02-14T11:27:57.299Z,103017.59
2023-02-14T11:30:28.968Z,103018.28
2023-02-14T11:32:57.000Z,103014.00
2023-02-14T11:35:27.629Z,102998.19
2023-02-14T11:37:56.918Z,102997.03
2023-02-14T11:40:29.537Z,102993.72
2023-02-14T11:43:13.324Z,102991.09
2023-02-14T11:45:43.462Z,102991.84
2023-02-14T11:48:22.325Z,102986.00
2023-02-14T11:50:57.836Z,102985.03
2023-02-14T11:53:27.667Z,102978.16
2023-02-14T11:55:56.969Z,102978.69
2023-02-14T11:58:38.543Z,102974.34
2023-02-14T12:01:06.517Z,102980.75
2023-02-14T12:03:39.726Z,102977.03
2023-02-14T12:06:07.635Z,102971.03
2023-02-14T12:08:38.914Z,102971.03
2023-02-14T12:11:20.398Z,102964.47
2023-02-14T12:13:55.269Z,102964.28
2023-02-14T12:16:28.288Z,102954.00
2023-02-14T12:18:58.555Z,102955.31
2023-02-14T12:21:37.958Z,102950.38
2023-02-14T12:24:14.794Z,102945.19
2023-02-14T12:26:47.768Z,102937.78
2023-02-14T12:29:22.155Z,102943.00
2023-02-14T12:31:50.993Z,102930.81
2023-02-14T12:34:19.956Z,102944.47
2023-02-14T12:37:00.294Z,102944.81
2023-02-14T12:39:36.538Z,102936.69
2023-02-14T12:42:11.463Z,102938.34
2023-02-14T12:44:48.330Z,102929.63
2023-02-14T12:47:22.059Z,102933.44
2023-02-14T12:50:08.268Z,102922.03
2023-02-14T12:52:48.859Z,102920.72
2023-02-14T12:55:28.410Z,102918.59
2023-02-14T12:57:59.999Z,102907.66
2023-02-14T13:00:35.704Z,102906.44
2023-02-14T13:03:37.349Z,102893.56
2023-02-14T13:06:09.348Z,102895.13
2023-02-14T13:08:49.112Z,102895.31
2023-02-14T13:11:23.496Z,102886.22
2023-02-14T13:14:03.746Z,102880.66
2023-02-14T13:16:37.650Z,102888.44
2023-02-14T13:19:07.350Z,102878.41
2023-02-14T13:21:37.412Z,102875.00
2023-02-14T13:24:14.430Z,102874.84
2023-02-14T13:26:45.184Z,102866.16
2023-02-14T13:29:14.876Z,102878.03
2023-02-14T13:31:44.088Z,102863.84
2023-02-14T13:34:20.899Z,102864.69
2023-02-14T13:36:48.892Z,102860.50
2023-02-14T13:39:23.904Z,102862.69
2023-02-14T13:41:51.444Z,102850.75
2023-02-14T13:44:43.621Z,102857.91
2023-02-14T13:47:19.338Z,102855.97
2023-02-14T13:49:50.248Z,102861.03
2023-02-14T13:52:46.400Z,102864.03
2023-02-14T13:55:17.666Z,102860.00
2023-02-14T13:57:45.564Z,102854.13
2023-02-14T14:00:48.821Z,102848.22
2023-02-14T14:03:53.749Z,102845.75
2023-02-14T14:06:22.704Z,102843.53
2023-02-14T14:08:57.003Z,102840.38
2023-02-14T14:11:58.932Z,102826.25
2023-02-14T14:14:39.670Z,102835.63
2023-02-14T14:17:26.196Z,102834.25
2023-02-14T14:19:54.085Z,102835.47
2023-02-14T14:22:23.027Z,102828.59
2023-02-14T14:24:55.904Z,102828.22
2023-02-14T14:27:25.171Z,102831.41
2023-02-14T14:29:55.037Z,102826.81
2023-02-14T14:32:28.263Z,102829.56
2023-02-14T14:34:59.891Z,102822.66
2023-02-14T14:37:30.381Z,102826.25
2023-02-14T14:39:59.942Z,102830.78
2023-02-14T14:42:30.543Z,102823.75
2023-02-14T14:45:00.104Z,102828.97
2023-02-14T14:47:29.733Z,102818.44
2023-02-14T14:50:00.872Z,102802.22
2023-02-14T14:52:36.373Z,102809.25
2023-02-14T14:55:06.876Z,102803.44
2023-02-14T14:57:36.356Z,102816.50
2023-02-14T15:00:10.503Z,102803.63
2023-02-14T15:02:38.066Z,102803.00
2023-02-14T15:05:15.211Z,102802.28
2023-02-14T15:07:44.145Z,102801.78
2023-02-14T15:10:23.198Z,102803.69
2023-02-14T15:13:09.349Z,102799.81
2023-02-14T15:15:37.148Z,102796.41
2023-02-14T15:18:06.750Z,102795.56
2023-02-14T15:20:35.168Z,102791.59
2023-02-14T15:23:05.351Z,102783.88
2023-02-14T15:25:34.801Z,102796.22
2023-02-14T15:28:02.732Z,102788.41
2023-02-14T15:30:34.188Z,102787.06
2023-02-14T15:33:03.377Z,102775.69
2023-02-14T15:35:32.968Z,102783.63
2023-02-14T15:38:04.030Z,102786.69
2023-02-14T15:40:35.006Z,102777.53
2023-02-14T15:43:15.395Z,102781.81
2023-02-14T15:45:44.841Z,102776.63
2023-02-14T15:48:15.811Z,102768.50
2023-02-14T15:50:46.613Z,102763.19
2023-02-14T15:53:30.481Z,102762.47
2023-02-14T15:56:05.700Z,102762.28
2023-02-14T15:58:35.411Z,102764.97
2023-02-14T16:01:04.068Z,102759.84
2023-02-14T16:03:35.792Z,102770.34
2023-02-14T16:06:03.532Z,102760.06
2023-02-14T16:08:32.841Z,102757.91
2023-02-14T16:11:03.226Z,102752.53
2023-02-14T16:13:34.437Z,102754.97
2023-02-14T16:16:03.348Z,102756.44
2023-02-14T16:18:36.607Z,102755.56
2023-02-14T16:21:16.373Z,102758.44
2023-02-14T16:23:45.094Z,102758.06
2023-02-14T16:26:13.284Z,102758.31
2023-02-14T16:28:43.458Z,102769.19
2023-02-14T16:31:16.154Z,102762.41
2023-02-14T16:33:43.748Z,102760.75
2023-02-14T16:36:19.474Z,102754.34
2023-02-14T16:38:47.223Z,102762.03
2023-02-14T16:41:19.865Z,102759.72
2023-02-14T16:43:49.948Z,102760.16
2023-02-14T16:46:19.155Z,102764.06
2023-02-14T16:48:46.650Z,102755.94
2023-02-14T16:51:14.727Z,102754.47
2023-02-14T16:53:43.289Z,102754.97
2023-02-14T16:56:16.466Z,102751.00
2023-02-14T16:58:44.218Z,102755.22
2023-02-14T17:01:13.128Z,102756.44
2023-02-14T17:03:42.635Z,102758.59
2023-02-14T17:06:13.923Z,102753.91
2023-02-14T17:08:42.490Z,102765.50
2023-02-14T17:11:11.018Z,102761.88
2023-02-14T17:13:40.968Z,102771.16
2023-02-14T17:16:10.957Z,102771.41
2023-02-14T17:18:41.477Z,102774.72
2023-02-14T17:21:08.861Z,102771.38
2023-02-14T17:23:36.378Z,102771.06
2023-02-14T17:26:06.447Z,102773.75
2023-02-14T17:28:34.142Z,102779.06
2023-02-14T17:31:01.751Z,102770.50
2023-02-14T17:33:30.511Z,102772.09
2023-02-14T17:36:05.188Z,102771.94
2023-02-14T17:38:32.701Z,102765.03
2023-02-14T17:41:00.500Z,102769.66
2023-02-14T17:43:28.099Z,102765.31
2023-02-14T17:45:56.653Z,102766.63
2023-02-14T17:48:24.113Z,102769.59
2023-02-14T17:50:51.606Z,102764.91
2023-02-14T17:53:20.394Z,102763.25
2023-02-14T17:55:47.934Z,102766.09
2023-02-14T17:58:15.399Z,102766.63
2023-02-14T18:00:43.468Z,102768.03
2023-02-14T18:03:10.955Z,102763.13
2023-02-14T18:05:38.375Z,102768.13
2023-02-14T18:08:06.047Z,102762.72
2023-02-14T18:10:34.854Z,102768.34
2023-02-14T18:13:02.247Z,102769.69
2023-02-14T18:15:29.800Z,102771.00
2023-02-14T18:17:57.294Z,102758.06
2023-02-14T18:20:24.789Z,102763.31
2023-02-14T18:22:52.219Z,102750.50
2023-02-14T18:25:19.753Z,102756.19
2023-02-14T18:27:48.643Z,102749.50
2023-02-14T18:30:16.479Z,102751.69
2023-02-14T18:32:44.344Z,102755.75
2023-02-14T18:35:11.851Z,102753.38
2023-02-14T18:37:39.268Z,102739.50
2023-02-14T18:40:09.252Z,102738.38
2023-02-14T18:42:38.191Z,102734.81
2023-02-14T18:45:08.052Z,102734.09
2023-02-14T18:47:35.580Z,102741.59
2023-02-14T18:50:03.214Z,102740.44
2023-02-14T18:52:30.722Z,102729.59
2023-02-14T18:54:59.298Z,102729.31
2023-02-14T18:57:26.821Z,102732.66
2023-02-14T18:59:54.451Z,102713.91
2023-02-14T19:02:23.330Z,102725.78
2023-02-14T19:04:50.861Z,102720.84
2023-02-14T19:07:18.620Z,102718.66
2023-02-14T19:09:46.276Z,102716.59
2023-02-14T19:12:13.796Z,102722.34
2023-02-14T19:14:41.357Z,102716.88
2023-02-14T19:17:08.885Z,102715.56
2023-02-14T19:19:37.718Z,102719.41
2023-02-14T19:22:05.102Z,102712.75
2023-02-14T19:24:32.603Z,102717.94
2023-02-14T19:27:00.104Z,102719.91
2023-02-14T19:29:27.593Z,102711.22
2023-02-14T19:31:55.908Z,102709.75
2023-02-14T19:34:27.210Z,102705.69
2023-02-14T19:36:58.978Z,102709.59
2023-02-14T19:39:29.371Z,102700.31
2023-02-14T19:41:57.182Z,102698.19
2023-02-14T19:44:25.811Z,102696.84
2023-02-14T19:46:54.259Z,102696.41
2023-02-14T19:49:21.964Z,102695.81
2023-02-14T19:51:51.107Z,102696.44
2023-02-14T19:54:21.803Z,102690.78
2023-02-14T19:56:49.522Z,102689.25
2023-02-14T19:59:20.034Z,102686.25
2023-02-14T20:01:49.296Z,102687.34
2023-02-14T20:04:18.639Z,102693.16
2023-02-14T20:06:46.699Z,102686.69
2023-02-14T20:09:14.595Z,102683.03
2023-02-14T20:11:49.969Z,102679.56
2023-02-14T20:14:18.967Z,102682.66
2023-02-14T20:16:47.155Z,102674.50
2023-02-14T20:19:17.397Z,102680.47
2023-02-14T20:21:46.202Z,102668.25
2023-02-14T20:24:16.833Z,102665.34
2023-02-14T20:26:47.312Z,102668.22
2023-02-14T20:29:16.053Z,102668.34
2023-02-14T20:31:46.041Z,102666.41
2023-02-14T20:34:13.875Z,102660.84
2023-02-14T20:36:42.302Z,102654.31
2023-02-14T20:39:11.317Z,102658.00
2023-02-14T20:41:38.943Z,102656.28
2023-02-14T20:44:16.857Z,102642.66
2023-02-14T20:46:44.794Z,102651.19
2023-02-14T20:49:12.523Z,102640.00
2023-02-14T20:51:40.623Z,102648.66
2023-02-14T20:54:08.159Z,102655.50
2023-02-14T20:56:35.819Z,102644.16
2023-02-14T20:59:03.863Z,102647.63
2023-02-14T21:01:33.247Z,102646.78
2023-02-14T21:04:00.804Z,102655.44
2023-02-14T21:06:30.272Z,102649.59
2023-02-14T21:08:58.557Z,102648.97
2023-02-14T21:11:26.824Z,102646.31
2023-02-14T21:13:55.044Z,102642.31
2023-02-14T21:16:22.623Z,102644.47
2023-02-14T21:18:55.172Z,102637.81
2023-02-14T21:21:24.444Z,102637.97
2023-02-14T21:23:52.571Z,102635.28
2023-02-14T21:26:21.168Z,102632.63
2023-02-14T21:28:49.131Z,102637.59
2023-02-14T21:31:20.581Z,102634.44
2023-02-14T21:33:51.833Z,102636.41
2023-02-14T21:36:20.572Z,102636.84
2023-02-14T21:38:48.472Z,102626.47
2023-02-14T21:41:17.415Z,102632.38
2023-02-14T21:43:46.817Z,102629.34
2023-02-14T21:46:16.397Z,102629.50
2023-02-14T21:49:01.770Z,102614.38
2023-02-14T21:51:31.066Z,102617.94
2023-02-14T21:53:59.725Z,102614.47
2023-02-14T21:56:28.092Z,102615.50
2023-02-14T21:58:56.628Z,102611.63
2023-02-14T22:01:25.864Z,102616.16
2023-02-14T22:03:53.907Z,102608.16
2023-02-14T22:06:22.549Z,102610.84
2023-02-14T22:08:54.139Z,102612.97
2023-02-14T22:11:22.382Z,102610.53
2023-02-14T22:13:53.466Z,102601.97
2023-02-14T22:16:22.826Z,102600.53
2023-02-14T22:18:50.887Z,102606.44
2023-02-14T22:21:20.606Z,102599.75
2023-02-14T22:26:38.623Z,102596.75
2023-02-14T22:29:06.537Z,102597.63
2023-02-14T22:31:35.635Z,102594.44
2023-02-14T22:34:04.524Z,102600.28
2023-02-14T22:36:32.155Z,102599.44
2023-02-14T22:38:59.702Z,102591.25
2023-02-14T22:41:27.371Z,102594.09
2023-02-14T22:43:57.308Z,102596.59
2023-02-14T22:46:26.489Z,102587.94
2023-02-14T22:48:54.499Z,102587.25
2023-02-14T22:51:24.228Z,102586.94
2023-02-14T22:53:53.615Z,102580.25
2023-02-14T22:56:23.450Z,102573.06
2023-02-14T22:58:54.540Z,102585.00
2023-02-14T23:01:24.038Z,102571.63
2023-02-14T23:03:53.886Z,102571.28
2023-02-14T23:06:22.866Z,102576.81
2023-02-14T23:08:50.662Z,102571.06
2023-02-14T23:11:19.736Z,102568.31
2023-02-14T23:14:05.238Z,102574.44
2023-02-14T23:16:51.940Z,102568.22
2023-02-14T23:19:38.428Z,102574.06
2023-02-14T23:22:08.304Z,102579.41
2023-02-14T23:24:35.856Z,102578.28
2023-02-14T23:27:03.479Z,102571.28
2023-02-14T23:29:31.740Z,102568.91
2023-02-14T23:32:00.997Z,102569.13
2023-02-14T23:34:30.622Z,102567.94
2023-02-14T23:36:58.055Z,102565.09
2023-02-14T23:39:25.878Z,102555.41
2023-02-14T23:41:53.665Z,102559.91
2023-02-14T23:44:23.380Z,102560.94
2023-02-14T23:46:52.439Z,102559.41
2023-02-14T23:49:21.731Z,102553.50
2023-02-14T23:51:51.855Z,102559.72
2023-02-14T23:54:20.024Z,102559.78
2023-02-14T23:56:47.802Z,102559.94
2023-02-14T23:59:16.153Z,102553.75
